Time;durP1;ratioP1;P1;durP2;ratioP2;P2;SDS_P1;SDS_P2;PMS_P1;PMS_P2;Temp;Humidity;BMP_temperature;BMP_pressure;BME280_temperature;BME280_humidity;BME280_pressure;Samples;Min_cycle;Max_cycle;Signal;HPM_P1;HPM_P2
2023/07/08 00:00:39;;;;;;;4.38;2.75;;;;;;;;;;5022165;28;25080;-74
2023/07/08 00:03:05;;;;;;;4.25;2.55;;;;;;;;;;5024553;28;25063;-73
2023/07/08 00:05:31;;;;;;;4.47;2.53;;;;;;;;;;5036604;28;25085;-73
2023/07/08 00:07:57;;;;;;;4.80;2.85;;;;;;;;;;5051402;28;25048;-74
2023/07/08 00:10:24;;;;;;;5.97;3.17;;;;;;;;;;5044155;28;25152;-74
2023/07/08 00:12:51;;;;;;;3.72;2.53;;;;;;;;;;5028569;28;25049;-74
2023/07/08 00:15:18;;;;;;;7.85;2.33;;;;;;;;;;5041296;28;25063;-73
2023/07/08 00:17:44;;;;;;;5.75;3.70;;;;;;;;;;5033226;28;25134;-72
2023/07/08 00:20:17;;;;;;;5.93;2.85;;;;;;;;;;5027985;28;25100;-71
2023/07/08 00:22:46;;;;;;;4.55;2.30;;;;;;;;;;5043903;28;25121;-73
2023/07/08 00:25:12;;;;;;;5.22;2.75;;;;;;;;;;5023548;28;25088;-74
2023/07/08 00:27:38;;;;;;;4.10;2.70;;;;;;;;;;5019963;28;25060;-74
2023/07/08 00:30:12;;;;;;;5.38;2.47;;;;;;;;;;5019074;28;25077;-72
2023/07/08 00:32:41;;;;;;;8.98;3.15;;;;;;;;;;5030429;28;25102;-74
2023/07/08 00:35:07;;;;;;;7.25;3.28;;;;;;;;;;5028991;28;25115;-75
2023/07/08 00:37:33;;;;;;;5.53;2.38;;;;;;;;;;5022740;28;25071;-74
2023/07/08 00:39:59;;;;;;;4.03;2.58;;;;;;;;;;5021909;28;25058;-74
2023/07/08 00:42:25;;;;;;;5.22;2.33;;;;;;;;;;5041615;28;25142;-74
2023/07/08 00:44:51;;;;;;;3.40;2.20;;;;;;;;;;5048062;28;25088;-74
2023/07/08 00:47:18;;;;;;;5.25;2.83;;;;;;;;;;5036804;28;25091;-72
2023/07/08 00:49:47;;;;;;;5.38;2.45;;;;;;;;;;5020052;28;25163;-74
2023/07/08 00:52:17;;;;;;;4.13;3.03;;;;;;;;;;5025818;28;25066;-74
2023/07/08 00:54:43;;;;;;;7.97;2.83;;;;;;;;;;5028084;28;25072;-75
2023/07/08 00:57:11;;;;;;;4.72;2.50;;;;;;;;;;5014451;28;25055;-73
2023/07/08 00:59:43;;;;;;;5.43;2.28;;;;;;;;;;5021124;28;25083;-70
2023/07/08 01:02:11;;;;;;;3.30;2.42;;;;;;;;;;5034502;28;25101;-75
2023/07/08 01:04:42;;;;;;;5.22;2.65;;;;;;;;;;5041075;28;25058;-72
2023/07/08 01:07:09;;;;;;;2.87;2.33;;;;;;;;;;5052145;28;25089;-70
2023/07/08 01:09:38;;;;;;;6.40;2.65;;;;;;;;;;5030962;28;25083;-73
2023/07/08 01:12:06;;;;;;;4.13;2.60;;;;;;;;;;5014160;28;25059;-73
2023/07/08 01:14:35;;;;;;;5.63;2.67;;;;;;;;;;5021858;28;25058;-75
2023/07/08 01:17:01;;;;;;;7.00;2.67;;;;;;;;;;5016094;28;25060;-74
2023/07/08 01:19:34;;;;;;;6.03;2.42;;;;;;;;;;5030206;28;25164;-72
2023/07/08 01:22:07;;;;;;;3.67;3.33;;;;;;;;;;5039404;28;25077;-73
2023/07/08 01:24:34;;;;;;;4.38;3.17;;;;;;;;;;5037832;28;25085;-75
2023/07/08 01:27:01;;;;;;;3.85;2.78;;;;;;;;;;5028494;28;25074;-73
2023/07/08 01:29:27;;;;;;;5.47;3.17;;;;;;;;;;5024591;28;25061;-72
2023/07/08 01:31:55;;;;;;;4.50;2.83;;;;;;;;;;5026367;28;25116;-73
2023/07/08 01:34:21;;;;;;;3.90;2.72;;;;;;;;;;5030104;28;25083;-74
2023/07/08 01:36:52;;;;;;;4.65;2.75;;;;;;;;;;5026832;28;25062;-74
2023/07/08 01:39:19;;;;;;;6.50;3.20;;;;;;;;;;5026720;28;25156;-76
2023/07/08 01:41:46;;;;;;;6.32;3.58;;;;;;;;;;5027417;28;25065;-74
2023/07/08 01:44:24;;;;;;;6.40;3.90;;;;;;;;;;5031219;28;25098;-75
2023/07/08 01:46:51;;;;;;;4.43;3.08;;;;;;;;;;5025743;28;25095;-73
2023/07/08 01:49:17;;;;;;;6.35;3.22;;;;;;;;;;5029830;28;25117;-72
2023/07/08 01:51:43;;;;;;;9.43;2.88;;;;;;;;;;5042559;28;25099;-74
2023/07/08 01:54:09;;;;;;;5.35;3.38;;;;;;;;;;5045640;28;25060;-72
2023/07/08 01:56:35;;;;;;;5.35;3.10;;;;;;;;;;5041357;28;25063;-75
2023/07/08 01:59:01;;;;;;;6.60;3.03;;;;;;;;;;5025754;28;25051;-73
2023/07/08 02:01:27;;;;;;;4.47;2.80;;;;;;;;;;5026620;28;25053;-75
2023/07/08 02:03:53;;;;;;;6.20;3.17;;;;;;;;;;5028356;28;25061;-75
2023/07/08 02:06:19;;;;;;;5.97;3.40;;;;;;;;;;5020796;28;25152;-74
2023/07/08 02:08:45;;;;;;;4.70;2.63;;;;;;;;;;5017594;28;25114;-75
2023/07/08 02:11:11;;;;;;;8.00;2.75;;;;;;;;;;5026846;28;25089;-74
2023/07/08 02:13:37;;;;;;;4.80;2.90;;;;;;;;;;5028801;28;25053;-73
2023/07/08 02:16:03;;;;;;;4.78;2.95;;;;;;;;;;5055638;28;25115;-74
2023/07/08 02:18:32;;;;;;;3.92;2.55;;;;;;;;;;5041185;28;25205;-73
2023/07/08 02:20:58;;;;;;;6.55;2.65;;;;;;;;;;5034894;28;25047;-74
2023/07/08 02:23:25;;;;;;;3.80;2.70;;;;;;;;;;5030987;28;25089;-74
2023/07/08 02:25:52;;;;;;;4.47;3.28;;;;;;;;;;5022742;28;25092;-73
2023/07/08 02:28:18;;;;;;;5.90;2.63;;;;;;;;;;5024642;28;25090;-73
2023/07/08 02:30:45;;;;;;;5.75;2.97;;;;;;;;;;5043478;28;25086;-74
2023/07/08 02:33:11;;;;;;;4.13;2.53;;;;;;;;;;5034719;28;25059;-73
2023/07/08 02:35:37;;;;;;;5.40;2.78;;;;;;;;;;5024360;28;25048;-73
2023/07/08 02:38:04;;;;;;;8.13;3.10;;;;;;;;;;5015347;28;25150;-74
2023/07/08 02:40:30;;;;;;;9.45;3.25;;;;;;;;;;5029061;28;25072;-74
2023/07/08 02:42:56;;;;;;;4.85;3.20;;;;;;;;;;5031353;28;25067;-74
2023/07/08 02:45:22;;;;;;;7.68;3.70;;;;;;;;;;5031562;28;25064;-74
2023/07/08 02:47:48;;;;;;;6.07;3.33;;;;;;;;;;5039195;28;25078;-74
2023/07/08 02:50:14;;;;;;;6.75;4.00;;;;;;;;;;5054491;28;25138;-75
2023/07/08 02:52:40;;;;;;;5.10;3.10;;;;;;;;;;5049915;28;25100;-72
2023/07/08 02:55:06;;;;;;;5.10;3.10;;;;;;;;;;5050536;28;25068;-74
2023/07/08 02:57:32;;;;;;;5.32;2.97;;;;;;;;;;5036334;28;25072;-74
2023/07/08 02:59:58;;;;;;;6.50;3.15;;;;;;;;;;5036039;28;25128;-75
2023/07/08 03:02:24;;;;;;;7.45;2.85;;;;;;;;;;5038100;28;25115;-74
2023/07/08 03:04:50;;;;;;;6.82;4.13;;;;;;;;;;5048949;28;25057;-74
2023/07/08 03:07:17;;;;;;;3.90;2.42;;;;;;;;;;5040527;28;25046;-73
2023/07/08 03:09:43;;;;;;;4.38;2.50;;;;;;;;;;5020470;28;25141;-74
2023/07/08 03:12:10;;;;;;;4.18;2.58;;;;;;;;;;5024842;28;25062;-73
2023/07/08 03:14:36;;;;;;;7.53;3.05;;;;;;;;;;5028383;28;25164;-72
2023/07/08 03:17:02;;;;;;;5.82;2.47;;;;;;;;;;5023351;28;25085;-73
2023/07/08 03:19:28;;;;;;;4.50;2.72;;;;;;;;;;5026108;28;25122;-73
2023/07/08 03:21:54;;;;;;;9.25;2.85;;;;;;;;;;5017490;28;25071;-75
2023/07/08 03:24:20;;;;;;;4.57;2.88;;;;;;;;;;5019458;28;25049;-73
2023/07/08 03:26:46;;;;;;;5.35;3.15;;;;;;;;;;5020415;28;25067;-74
2023/07/08 03:29:16;;;;;;;4.80;2.25;;;;;;;;;;5025109;28;25074;-74
2023/07/08 03:31:42;;;;;;;5.25;2.72;;;;;;;;;;5023236;28;25069;-73
2023/07/08 03:34:11;;;;;;;4.03;2.50;;;;;;;;;;5038955;28;25111;-72
2023/07/08 03:36:44;;;;;;;5.65;2.55;;;;;;;;;;5064090;28;25055;-76
2023/07/08 03:39:10;;;;;;;3.58;2.70;;;;;;;;;;5070280;28;25053;-75
2023/07/08 03:41:36;;;;;;;5.18;2.90;;;;;;;;;;5057813;28;25105;-73
2023/07/08 03:44:02;;;;;;;3.25;2.60;;;;;;;;;;5055252;28;25097;-74
2023/07/08 03:46:28;;;;;;;4.22;2.67;;;;;;;;;;5061307;28;25088;-75
2023/07/08 03:48:53;;;;;;;7.30;2.85;;;;;;;;;;5060173;28;25089;-73
2023/07/08 03:51:26;;;;;;;4.82;2.70;;;;;;;;;;5082759;28;25062;-75
2023/07/08 03:53:51;;;;;;;7.43;2.90;;;;;;;;;;5066880;28;25076;-74
2023/07/08 03:56:18;;;;;;;5.75;2.97;;;;;;;;;;5053956;28;25083;-74
2023/07/08 03:58:43;;;;;;;3.85;2.53;;;;;;;;;;5052146;28;25045;-74
2023/07/08 04:01:23;;;;;;;4.32;2.88;;;;;;;;;;5058825;28;25097;-73
2023/07/08 04:03:50;;;;;;;3.67;2.15;;;;;;;;;;5042307;28;25086;-73
2023/07/08 04:06:16;;;;;;;3.30;2.28;;;;;;;;;;5054515;28;25044;-73
2023/07/08 04:08:42;;;;;;;3.78;2.75;;;;;;;;;;5054731;28;25062;-74
2023/07/08 04:11:09;;;;;;;4.80;2.47;;;;;;;;;;5049860;28;25049;-73
2023/07/08 04:13:35;;;;;;;4.30;2.60;;;;;;;;;;5049714;28;25066;-74
2023/07/08 04:16:02;;;;;;;2.63;2.30;;;;;;;;;;5048236;28;25154;-74
2023/07/08 04:18:28;;;;;;;3.67;2.45;;;;;;;;;;5057181;28;25080;-74
2023/07/08 04:20:54;;;;;;;4.90;2.80;;;;;;;;;;5054209;28;25078;-76
2023/07/08 04:23:20;;;;;;;6.57;2.67;;;;;;;;;;5051414;28;25084;-75
2023/07/08 04:25:47;;;;;;;4.28;2.58;;;;;;;;;;5043779;28;25075;-75
2023/07/08 04:28:13;;;;;;;4.30;2.63;;;;;;;;;;5053632;28;25054;-73
2023/07/08 04:30:41;;;;;;;6.63;3.05;;;;;;;;;;5044668;28;25054;-74
2023/07/08 04:33:13;;;;;;;3.33;2.38;;;;;;;;;;5067096;28;25079;-74
2023/07/08 04:35:40;;;;;;;8.82;2.80;;;;;;;;;;5079849;28;25096;-76
2023/07/08 04:38:09;;;;;;;3.67;2.47;;;;;;;;;;5063264;28;25101;-74
2023/07/08 04:40:36;;;;;;;4.47;2.50;;;;;;;;;;5049373;28;25101;-72
2023/07/08 04:43:03;;;;;;;3.80;2.70;;;;;;;;;;5047463;28;25087;-75
2023/07/08 04:45:29;;;;;;;5.32;2.60;;;;;;;;;;5043763;28;25062;-73
2023/07/08 04:47:55;;;;;;;4.18;2.53;;;;;;;;;;5051454;28;25053;-75
2023/07/08 04:50:21;;;;;;;6.70;3.35;;;;;;;;;;5059489;28;25082;-75
2023/07/08 04:52:47;;;;;;;8.95;2.60;;;;;;;;;;5049288;28;25090;-74
2023/07/08 04:55:13;;;;;;;5.93;2.53;;;;;;;;;;5034661;28;25068;-74
2023/07/08 04:57:39;;;;;;;4.55;3.00;;;;;;;;;;5042244;28;25062;-74
2023/07/08 05:00:08;;;;;;;4.38;2.92;;;;;;;;;;5050016;28;25051;-75
2023/07/08 05:02:35;;;;;;;4.22;2.90;;;;;;;;;;5026161;28;25090;-73
2023/07/08 05:05:01;;;;;;;3.67;2.35;;;;;;;;;;5029147;28;25073;-73
2023/07/08 05:07:27;;;;;;;5.25;2.90;;;;;;;;;;5028125;28;25077;-73
2023/07/08 05:09:53;;;;;;;4.72;2.72;;;;;;;;;;5025283;28;26178;-75
2023/07/08 05:12:19;;;;;;;5.68;3.05;;;;;;;;;;5022190;28;25047;-73
2023/07/08 05:14:45;;;;;;;5.53;2.75;;;;;;;;;;5036818;28;25044;-75
2023/07/08 05:17:10;;;;;;;4.85;2.70;;;;;;;;;;5040763;28;25074;-74
2023/07/08 05:19:37;;;;;;;5.15;2.85;;;;;;;;;;5025624;28;25071;-73
2023/07/08 05:22:03;;;;;;;5.20;3.13;;;;;;;;;;5043840;28;25080;-73
2023/07/08 05:24:28;;;;;;;3.47;2.92;;;;;;;;;;5026565;28;25116;-72
2023/07/08 05:26:54;;;;;;;8.07;3.10;;;;;;;;;;5016819;28;25065;-74
2023/07/08 05:29:20;;;;;;;5.47;3.47;;;;;;;;;;5017143;28;25090;-74
2023/07/08 05:31:46;;;;;;;5.63;2.88;;;;;;;;;;5028073;28;25143;-75
2023/07/08 05:34:13;;;;;;;3.80;2.20;;;;;;;;;;5024168;28;25104;-75
2023/07/08 05:36:39;;;;;;;5.97;2.92;;;;;;;;;;5017780;28;25056;-75
2023/07/08 05:39:05;;;;;;;5.88;2.60;;;;;;;;;;5024657;28;25071;-74
2023/07/08 05:41:31;;;;;;;3.70;2.67;;;;;;;;;;5039793;28;25048;-74
2023/07/08 05:43:57;;;;;;;6.30;2.40;;;;;;;;;;5046801;28;25062;-72
2023/07/08 05:46:23;;;;;;;6.13;2.67;;;;;;;;;;5022519;28;25095;-76
2023/07/08 05:48:50;;;;;;;8.60;3.10;;;;;;;;;;5029427;28;25070;-75
2023/07/08 05:51:16;;;;;;;6.70;2.90;;;;;;;;;;5051868;28;25075;-73
2023/07/08 05:53:42;;;;;;;8.02;2.75;;;;;;;;;;5043366;28;25142;-75
2023/07/08 05:56:08;;;;;;;4.72;2.55;;;;;;;;;;5037958;28;25039;-73
2023/07/08 05:58:34;;;;;;;5.10;2.80;;;;;;;;;;5025754;28;25057;-75
2023/07/08 06:01:00;;;;;;;7.32;2.85;;;;;;;;;;5023186;28;25133;-74
2023/07/08 06:03:26;;;;;;;8.18;3.08;;;;;;;;;;5019978;28;25085;-75
2023/07/08 06:05:52;;;;;;;6.07;3.22;;;;;;;;;;5014092;28;25043;-75
2023/07/08 06:08:18;;;;;;;7.90;2.88;;;;;;;;;;5024982;28;25059;-73
2023/07/08 06:10:45;;;;;;;4.57;2.60;;;;;;;;;;5019232;28;25135;-77
2023/07/08 06:13:11;;;;;;;3.78;2.83;;;;;;;;;;5027454;28;25166;-74
2023/07/08 06:15:37;;;;;;;6.20;3.50;;;;;;;;;;5024898;28;25123;-75
2023/07/08 06:18:03;;;;;;;6.20;3.35;;;;;;;;;;5025921;28;25111;-76
2023/07/08 06:20:29;;;;;;;4.57;2.75;;;;;;;;;;5026160;28;25104;-75
2023/07/08 06:22:56;;;;;;;6.97;2.95;;;;;;;;;;5022462;28;25064;-75
2023/07/08 06:25:22;;;;;;;4.68;3.03;;;;;;;;;;5024601;28;25049;-73
2023/07/08 06:27:47;;;;;;;3.92;2.83;;;;;;;;;;5020358;28;25047;-74
2023/07/08 06:30:14;;;;;;;5.53;3.13;;;;;;;;;;5024800;28;25131;-74
2023/07/08 06:32:40;;;;;;;4.20;3.00;;;;;;;;;;5026299;28;25129;-76
2023/07/08 06:35:06;;;;;;;7.22;2.90;;;;;;;;;;5027251;28;25102;-75
2023/07/08 06:37:32;;;;;;;4.90;2.83;;;;;;;;;;5024078;28;25138;-74
2023/07/08 06:39:58;;;;;;;4.43;2.75;;;;;;;;;;5024132;28;25046;-75
2023/07/08 06:42:24;;;;;;;8.13;3.10;;;;;;;;;;5023644;28;25066;-75
2023/07/08 06:44:50;;;;;;;5.85;3.45;;;;;;;;;;5026163;28;25080;-75
2023/07/08 06:47:20;;;;;;;4.95;3.03;;;;;;;;;;5023824;28;25125;-76
2023/07/08 06:49:46;;;;;;;8.25;3.15;;;;;;;;;;5024821;28;25077;-74
2023/07/08 06:52:12;;;;;;;5.07;2.75;;;;;;;;;;5023965;28;25158;-76
2023/07/08 06:54:38;;;;;;;6.43;3.25;;;;;;;;;;5022284;28;25077;-77
2023/07/08 06:57:05;;;;;;;5.78;2.80;;;;;;;;;;5037663;28;25072;-74
2023/07/08 06:59:31;;;;;;;6.47;3.03;;;;;;;;;;5060001;28;25051;-75
2023/07/08 07:01:57;;;;;;;4.38;3.13;;;;;;;;;;5050553;28;25059;-75
2023/07/08 07:04:23;;;;;;;7.55;3.67;;;;;;;;;;5027580;28;25063;-75
2023/07/08 07:06:49;;;;;;;10.25;3.17;;;;;;;;;;5027055;28;25064;-76
2023/07/08 07:09:15;;;;;;;4.70;2.78;;;;;;;;;;5022449;28;25069;-76
2023/07/08 07:11:41;;;;;;;6.60;3.13;;;;;;;;;;5023426;28;25109;-76
2023/07/08 07:14:07;;;;;;;9.10;3.40;;;;;;;;;;5020708;28;25097;-76
2023/07/08 07:16:33;;;;;;;7.68;3.88;;;;;;;;;;5024939;28;25056;-72
2023/07/08 07:18:59;;;;;;;8.68;3.47;;;;;;;;;;5025949;28;25073;-74
2023/07/08 07:21:25;;;;;;;5.20;3.10;;;;;;;;;;5028866;28;25077;-75
2023/07/08 07:23:51;;;;;;;3.45;2.85;;;;;;;;;;5028183;28;25073;-75
2023/07/08 07:26:17;;;;;;;6.25;3.35;;;;;;;;;;5027537;28;25066;-76
2023/07/08 07:28:43;;;;;;;4.57;3.53;;;;;;;;;;5025199;28;25132;-74
2023/07/08 07:31:11;;;;;;;6.85;3.78;;;;;;;;;;5025069;28;25077;-75
2023/07/08 07:33:37;;;;;;;5.07;3.20;;;;;;;;;;5042528;28;25080;-76
2023/07/08 07:36:03;;;;;;;7.22;4.18;;;;;;;;;;5033566;28;25121;-76
2023/07/08 07:38:30;;;;;;;5.95;3.25;;;;;;;;;;5021363;28;25070;-76
2023/07/08 07:40:59;;;;;;;5.80;3.85;;;;;;;;;;5022832;28;25069;-77
2023/07/08 07:43:25;;;;;;;7.85;3.30;;;;;;;;;;5026720;28;25073;-77
2023/07/08 07:45:52;;;;;;;6.68;3.90;;;;;;;;;;5028823;28;25074;-75
2023/07/08 07:48:18;;;;;;;5.97;3.60;;;;;;;;;;5024195;28;25053;-78
2023/07/08 07:50:47;;;;;;;6.45;3.20;;;;;;;;;;5033976;28;25070;-74
2023/07/08 07:53:13;;;;;;;9.50;3.72;;;;;;;;;;5025299;28;25171;-76
2023/07/08 07:55:39;;;;;;;7.97;3.53;;;;;;;;;;5024454;28;25090;-79
2023/07/08 07:58:05;;;;;;;6.00;4.18;;;;;;;;;;5018137;28;25157;-77
2023/07/08 08:00:31;;;;;;;10.05;3.85;;;;;;;;;;5025534;28;25119;-74
2023/07/08 08:02:57;;;;;;;8.40;4.90;;;;;;;;;;5027156;28;25051;-76
2023/07/08 08:05:23;;;;;;;8.20;3.90;;;;;;;;;;5024236;28;25062;-76
2023/07/08 08:07:49;;;;;;;4.43;3.42;;;;;;;;;;5036104;28;25065;-76
2023/07/08 08:10:15;;;;;;;8.15;3.83;;;;;;;;;;5026598;28;25064;-77
2023/07/08 08:12:41;;;;;;;9.00;4.57;;;;;;;;;;5019234;28;25078;-74
2023/07/08 08:15:08;;;;;;;6.85;3.97;;;;;;;;;;5023670;28;25079;-76
2023/07/08 08:17:34;;;;;;;9.88;3.53;;;;;;;;;;5019712;28;25068;-74
2023/07/08 08:20:00;;;;;;;8.77;4.28;;;;;;;;;;5020627;28;25053;-75
2023/07/08 08:22:26;;;;;;;9.10;4.80;;;;;;;;;;5041768;28;25139;-77
2023/07/08 08:24:52;;;;;;;6.45;4.60;;;;;;;;;;5024440;28;25100;-77
2023/07/08 08:27:17;;;;;;;8.68;4.30;;;;;;;;;;5026232;28;25099;-76
2023/07/08 08:29:43;;;;;;;6.45;4.22;;;;;;;;;;5030605;28;25179;-75
2023/07/08 08:32:09;;;;;;;8.20;4.40;;;;;;;;;;5027958;28;25072;-79
2023/07/08 08:34:35;;;;;;;7.28;4.35;;;;;;;;;;5024975;28;25066;-79
2023/07/08 08:37:01;;;;;;;8.75;4.30;;;;;;;;;;5024799;28;25085;-76
2023/07/08 08:39:29;;;;;;;7.38;4.65;;;;;;;;;;5045228;28;25106;-78
2023/07/08 08:41:56;;;;;;;7.50;4.30;;;;;;;;;;5032886;28;25069;-79
2023/07/08 08:44:27;;;;;;;9.98;5.05;;;;;;;;;;5028761;28;25050;-76
2023/07/08 08:47:01;;;;;;;6.28;4.25;;;;;;;;;;5023572;28;25062;-74
2023/07/08 08:49:31;;;;;;;6.88;4.50;;;;;;;;;;5038695;28;25084;-79
2023/07/08 08:51:58;;;;;;;10.93;4.80;;;;;;;;;;5027733;28;25052;-74
2023/07/08 08:54:24;;;;;;;6.85;4.60;;;;;;;;;;5021627;28;25158;-78
2023/07/08 08:57:05;;;;;;;8.02;4.63;;;;;;;;;;5022299;28;25145;-76
2023/07/08 08:59:36;;;;;;;10.48;4.43;;;;;;;;;;5031326;28;25042;-79
2023/07/08 09:02:12;;;;;;;9.98;4.38;;;;;;;;;;5027222;28;25056;-79
2023/07/08 09:04:38;;;;;;;7.93;5.15;;;;;;;;;;5031353;28;25067;-76
2023/07/08 09:07:12;;;;;;;7.03;4.20;;;;;;;;;;5018786;28;25102;-78
2023/07/08 09:09:45;;;;;;;9.40;4.90;;;;;;;;;;5023867;28;25069;-76
2023/07/08 09:12:14;;;;;;;8.23;5.68;;;;;;;;;;5025587;28;25052;-75
2023/07/08 09:14:39;;;;;;;8.50;5.03;;;;;;;;;;5034767;28;25077;-77
2023/07/08 09:17:06;;;;;;;6.70;3.97;;;;;;;;;;5034776;28;25097;-77
2023/07/08 09:19:35;;;;;;;7.82;4.35;;;;;;;;;;5026140;28;25157;-75
2023/07/08 09:22:15;;;;;;;7.80;4.72;;;;;;;;;;5016666;28;25059;-75
2023/07/08 09:24:43;;;;;;;8.50;5.10;;;;;;;;;;5027418;28;25076;-76
2023/07/08 09:27:09;;;;;;;12.57;4.72;;;;;;;;;;5016386;28;25071;-76
2023/07/08 09:29:35;;;;;;;8.65;4.80;;;;;;;;;;5031457;28;25051;-77
2023/07/08 09:32:09;;;;;;;10.73;5.57;;;;;;;;;;5046107;28;25074;-78
2023/07/08 09:34:42;;;;;;;10.48;4.88;;;;;;;;;;5054115;28;25058;-76
2023/07/08 09:37:27;;;;;;;8.52;4.72;;;;;;;;;;5054945;28;25090;-76
2023/07/08 09:39:53;;;;;;;14.02;4.93;;;;;;;;;;5034268;28;25065;-76
2023/07/08 09:42:21;;;;;;;7.95;4.22;;;;;;;;;;5045679;28;25089;-75
2023/07/08 09:44:47;;;;;;;9.48;5.22;;;;;;;;;;5068959;28;25089;-76
2023/07/08 09:47:30;;;;;;;9.02;4.53;;;;;;;;;;5066897;28;25044;-74
2023/07/08 09:49:57;;;;;;;8.25;4.90;;;;;;;;;;5049927;28;25053;-76
2023/07/08 09:52:23;;;;;;;8.80;5.32;;;;;;;;;;5055142;28;25081;-76
2023/07/08 09:54:50;;;;;;;9.95;5.28;;;;;;;;;;5063516;28;25087;-75
2023/07/08 09:57:22;;;;;;;10.63;6.07;;;;;;;;;;5040920;28;25083;-75
2023/07/08 09:59:49;;;;;;;9.32;5.68;;;;;;;;;;5031281;28;25052;-75
2023/07/08 10:02:21;;;;;;;7.95;4.47;;;;;;;;;;5030716;28;25070;-72
2023/07/08 10:04:51;;;;;;;9.65;5.70;;;;;;;;;;5023923;28;25072;-75
2023/07/08 10:07:17;;;;;;;6.68;4.97;;;;;;;;;;5024857;28;25066;-78
2023/07/08 10:09:43;;;;;;;7.75;5.55;;;;;;;;;;5038823;28;25074;-75
2023/07/08 10:12:13;;;;;;;6.75;4.63;;;;;;;;;;5027929;28;25103;-76
2023/07/08 10:14:50;;;;;;;9.05;5.07;;;;;;;;;;5032803;28;25147;-75
2023/07/08 10:17:17;;;;;;;7.78;4.95;;;;;;;;;;5031186;28;25075;-73
2023/07/08 10:19:43;;;;;;;9.02;5.18;;;;;;;;;;5031346;28;25094;-73
2023/07/08 10:22:17;;;;;;;6.47;4.78;;;;;;;;;;5042931;28;25079;-74
2023/07/08 10:24:49;;;;;;;7.82;5.03;;;;;;;;;;5036574;28;25094;-73
2023/07/08 10:27:34;;;;;;;9.60;5.45;;;;;;;;;;5022902;28;25101;-74
2023/07/08 10:30:00;;;;;;;11.13;5.70;;;;;;;;;;5026398;28;25106;-74
2023/07/08 10:32:41;;;;;;;13.73;5.07;;;;;;;;;;5027889;28;25103;-73
2023/07/08 10:35:16;;;;;;;7.82;5.07;;;;;;;;;;5027283;28;25075;-73
2023/07/08 10:37:48;;;;;;;8.77;5.78;;;;;;;;;;5023504;28;25059;-73
2023/07/08 10:40:14;;;;;;;8.40;5.18;;;;;;;;;;5033905;28;25106;-74
2023/07/08 10:42:59;;;;;;;11.35;5.57;;;;;;;;;;5034618;28;25077;-73
2023/07/08 10:45:48;;;;;;;11.70;5.18;;;;;;;;;;5036612;28;25071;-75
2023/07/08 10:48:24;;;;;;;11.45;5.20;;;;;;;;;;5020641;28;25052;-75
2023/07/08 10:51:00;;;;;;;9.77;5.07;;;;;;;;;;5044885;28;25089;-73
2023/07/08 10:53:26;;;;;;;11.70;5.80;;;;;;;;;;5046572;28;25072;-74
2023/07/08 10:55:55;;;;;;;8.35;5.40;;;;;;;;;;5053647;28;25074;-73
2023/07/08 10:58:37;;;;;;;11.25;5.50;;;;;;;;;;5050873;28;25094;-74
2023/07/08 11:01:11;;;;;;;11.73;5.18;;;;;;;;;;5060239;28;25069;-75
2023/07/08 11:03:37;;;;;;;9.40;5.40;;;;;;;;;;5061340;28;25091;-74
2023/07/08 11:06:08;;;;;;;10.88;6.10;;;;;;;;;;5066768;28;25062;-74
2023/07/08 11:08:38;;;;;;;10.02;4.82;;;;;;;;;;5065828;28;25059;-75
2023/07/08 11:11:04;;;;;;;13.70;5.20;;;;;;;;;;5070319;28;25086;-73
2023/07/08 11:13:32;;;;;;;7.68;5.28;;;;;;;;;;5068024;28;25060;-75
2023/07/08 11:16:01;;;;;;;9.05;5.90;;;;;;;;;;5053482;28;25090;-74
2023/07/08 11:18:39;;;;;;;9.02;5.13;;;;;;;;;;5049283;28;25095;-75
2023/07/08 11:21:08;;;;;;;7.20;5.05;;;;;;;;;;5042597;28;25106;-74
2023/07/08 11:23:57;;;;;;;7.40;5.22;;;;;;;;;;5052049;28;25085;-73
2023/07/08 11:26:32;;;;;;;6.63;5.10;;;;;;;;;;5046569;28;25089;-74
2023/07/08 11:28:59;;;;;;;9.63;5.85;;;;;;;;;;5037769;28;25082;-74
2023/07/08 11:31:26;;;;;;;9.93;5.78;;;;;;;;;;5040033;28;25162;-74
2023/07/08 11:33:54;;;;;;;7.90;5.50;;;;;;;;;;5037908;28;25068;-74
2023/07/08 11:36:21;;;;;;;10.98;6.10;;;;;;;;;;5048114;28;25054;-74
2023/07/08 11:38:51;;;;;;;10.25;5.20;;;;;;;;;;5033642;28;25059;-75
2023/07/08 11:41:19;;;;;;;10.52;6.38;;;;;;;;;;5024450;28;25122;-74
2023/07/08 11:43:57;;;;;;;18.13;6.53;;;;;;;;;;5025358;28;25179;-72
2023/07/08 11:46:31;;;;;;;10.07;5.80;;;;;;;;;;5025451;28;25057;-74
2023/07/08 11:49:01;;;;;;;8.82;5.22;;;;;;;;;;5027433;28;25064;-70
2023/07/08 11:51:29;;;;;;;14.35;6.20;;;;;;;;;;5046052;28;25069;-70
2023/07/08 11:54:10;;;;;;;9.65;5.43;;;;;;;;;;5031550;28;25076;-73
2023/07/08 11:56:36;;;;;;;;;;;;;;;;;;5034388;28;25075;-73
2023/07/08 11:59:08;;;;;;;10.18;5.47;;;;;;;;;;5031947;28;25071;-75
2023/07/08 12:01:53;;;;;;;8.18;5.15;;;;;;;;;;5031379;28;25148;-72
2023/07/08 12:04:27;;;;;;;8.48;4.97;;;;;;;;;;5032465;28;25050;-74
2023/07/08 12:07:01;;;;;;;8.65;5.85;;;;;;;;;;5026202;28;25062;-73
2023/07/08 12:09:30;;;;;;;7.55;5.45;;;;;;;;;;5023471;28;25129;-72
2023/07/08 12:12:00;;;;;;;13.23;5.63;;;;;;;;;;5027206;28;25065;-75
2023/07/08 12:14:27;;;;;;;8.25;4.95;;;;;;;;;;5024812;28;25120;-76
2023/07/08 12:16:53;;;;;;;7.90;5.57;;;;;;;;;;5030479;28;25057;-73
2023/07/08 12:19:20;;;;;;;7.35;4.88;;;;;;;;;;5028422;28;25063;-72
2023/07/08 12:21:46;;;;;;;9.23;6.20;;;;;;;;;;5042342;28;25045;-75
2023/07/08 12:24:13;;;;;;;9.52;5.85;;;;;;;;;;5030932;28;25063;-74
2023/07/08 12:26:40;;;;;;;9.98;5.72;;;;;;;;;;5015550;28;25123;-73
2023/07/08 12:29:06;;;;;;;8.82;5.28;;;;;;;;;;5024836;28;25214;-72
2023/07/08 12:31:32;;;;;;;7.47;5.22;;;;;;;;;;5015623;28;25057;-73
2023/07/08 12:33:58;;;;;;;8.52;5.15;;;;;;;;;;5028164;28;25064;-72
2023/07/08 12:36:28;;;;;;;8.85;5.50;;;;;;;;;;5027384;28;25056;-73
2023/07/08 12:38:58;;;;;;;10.00;5.72;;;;;;;;;;5028265;28;25071;-74
2023/07/08 12:41:26;;;;;;;8.38;5.20;;;;;;;;;;5023625;28;25059;-72
2023/07/08 12:43:52;;;;;;;10.57;6.03;;;;;;;;;;5018821;28;25079;-73
2023/07/08 12:46:19;;;;;;;8.57;5.45;;;;;;;;;;5034197;28;25079;-73
2023/07/08 12:48:45;;;;;;;9.48;5.85;;;;;;;;;;5024403;28;25446;-75
2023/07/08 12:51:12;;;;;;;12.95;5.38;;;;;;;;;;5017179;28;25108;-74
2023/07/08 12:53:38;;;;;;;10.70;5.20;;;;;;;;;;5033462;28;25055;-71
2023/07/08 12:56:04;;;;;;;9.15;5.60;;;;;;;;;;5040581;28;25083;-72
2023/07/08 12:58:32;;;;;;;9.80;6.30;;;;;;;;;;5043460;28;25065;-72
2023/07/08 13:01:00;;;;;;;9.48;5.70;;;;;;;;;;5022694;28;25112;-73
2023/07/08 13:03:28;;;;;;;8.70;5.07;;;;;;;;;;5022529;28;25063;-72
2023/07/08 13:05:55;;;;;;;13.27;5.57;;;;;;;;;;5017318;28;25087;-71
2023/07/08 13:08:23;;;;;;;12.38;6.40;;;;;;;;;;5016092;28;25074;-72
2023/07/08 13:10:51;;;;;;;10.13;5.63;;;;;;;;;;5020326;28;25063;-72
2023/07/08 13:13:21;;;;;;;9.48;5.57;;;;;;;;;;5015999;28;25140;-71
2023/07/08 13:15:48;;;;;;;6.67;5.60;;;;;;;;;;5024838;28;25080;-69
2023/07/08 13:18:18;;;;;;;9.07;5.70;;;;;;;;;;5024623;28;25064;-72
2023/07/08 13:20:50;;;;;;;12.50;6.47;;;;;;;;;;5022667;28;25195;-71
2023/07/08 13:23:16;;;;;;;12.98;6.13;;;;;;;;;;5021474;28;25147;-71
2023/07/08 13:25:42;;;;;;;11.73;5.78;;;;;;;;;;5018413;28;25137;-71
2023/07/08 13:28:15;;;;;;;8.27;5.78;;;;;;;;;;5022377;28;25064;-72
2023/07/08 13:30:51;;;;;;;9.38;6.10;;;;;;;;;;5015242;28;25156;-72
2023/07/08 13:33:17;;;;;;;9.57;6.15;;;;;;;;;;5022737;28;25065;-74
2023/07/08 13:35:44;;;;;;;11.85;5.35;;;;;;;;;;5019029;28;25115;-72
2023/07/08 13:38:20;;;;;;;11.90;6.20;;;;;;;;;;5019925;28;25054;-71
2023/07/08 13:40:47;;;;;;;9.60;6.03;;;;;;;;;;5019602;28;25047;-72
2023/07/08 13:43:13;;;;;;;12.98;5.85;;;;;;;;;;5022950;28;25065;-71
2023/07/08 13:45:47;;;;;;;9.45;5.30;;;;;;;;;;5020372;28;25073;-71
2023/07/08 13:48:15;;;;;;;11.70;6.28;;;;;;;;;;5022805;28;25062;-72
2023/07/08 13:50:45;;;;;;;9.70;6.15;;;;;;;;;;5025852;28;25055;-73
2023/07/08 13:53:22;;;;;;;11.93;6.25;;;;;;;;;;5020755;28;25123;-72
2023/07/08 13:55:49;;;;;;;8.75;6.20;;;;;;;;;;5023305;28;25049;-72
2023/07/08 13:58:16;;;;;;;10.90;5.20;;;;;;;;;;5024339;28;25052;-70
2023/07/08 14:00:42;;;;;;;10.68;6.65;;;;;;;;;;5022939;28;25068;-73
2023/07/08 14:03:11;;;;;;;10.80;6.35;;;;;;;;;;5015270;28;25154;-72
2023/07/08 14:05:40;;;;;;;9.35;5.72;;;;;;;;;;5018426;28;25063;-72
2023/07/08 14:08:13;;;;;;;11.40;7.18;;;;;;;;;;5017578;28;25053;-71
2023/07/08 14:10:39;;;;;;;13.23;5.43;;;;;;;;;;5020118;28;25102;-73
2023/07/08 14:13:05;;;;;;;9.38;5.88;;;;;;;;;;5022237;28;25107;-73
2023/07/08 14:15:32;;;;;;;9.98;5.47;;;;;;;;;;5022077;28;25060;-74
2023/07/08 14:17:58;;;;;;;13.23;6.95;;;;;;;;;;5024989;28;25059;-71
2023/07/08 14:20:27;;;;;;;13.27;5.82;;;;;;;;;;5043237;28;25048;-73
2023/07/08 14:22:53;;;;;;;9.45;6.82;;;;;;;;;;5034185;28;25087;-72
2023/07/08 14:25:23;;;;;;;7.97;5.25;;;;;;;;;;5021877;28;25094;-72
2023/07/08 14:27:50;;;;;;;9.68;5.72;;;;;;;;;;5021273;28;25065;-71
2023/07/08 14:30:17;;;;;;;9.25;5.93;;;;;;;;;;5016853;28;25065;-71
2023/07/08 14:32:43;;;;;;;14.02;6.18;;;;;;;;;;5018682;28;25087;-71
2023/07/08 14:35:12;;;;;;;8.00;6.18;;;;;;;;;;5014023;28;25162;-72
2023/07/08 14:37:38;;;;;;;10.40;6.00;;;;;;;;;;5009943;28;25137;-72
2023/07/08 14:40:21;;;;;;;11.90;5.93;;;;;;;;;;5016920;28;25074;-73
2023/07/08 14:42:47;;;;;;;12.63;5.57;;;;;;;;;;5013965;28;25068;-70
2023/07/08 14:45:13;;;;;;;9.15;5.50;;;;;;;;;;5024348;28;25118;-72